Time;durP1;ratioP1;P1;durP2;ratioP2;P2;SDS_P1;SDS_P2;PMS_P1;PMS_P2;Temp;Humidity;BMP_temperature;BMP_pressure;BME280_temperature;BME280_humidity;BME280_pressure;Samples;Min_cycle;Max_cycle;Signal;HPM_P1;HPM_P2
2022/08/03 00:01:57;;;;;;;6.40;5.50;;;;;;;16.07;84.99;94789.36;1633135;86;21008;-54
2022/08/03 00:04:25;;;;;;;6.87;4.87;;;;;;;16.02;85.42;94791.41;1672238;84;21494;-55
2022/08/03 00:06:52;;;;;;;6.12;4.80;;;;;;;16.01;85.41;94789.88;1649299;85;21160;-54
2022/08/03 00:09:20;;;;;;;6.37;4.72;;;;;;;15.98;85.38;94789.45;1629060;85;21146;-53
2022/08/03 00:11:49;;;;;;;8.95;4.97;;;;;;;15.94;85.54;94795.19;1669634;85;21009;-54
2022/08/03 00:14:17;;;;;;;6.28;5.08;;;;;;;15.93;85.63;94791.53;1651540;84;21091;-54
2022/08/03 00:16:45;;;;;;;6.22;5.05;;;;;;;15.93;85.71;94786.72;1675425;85;21034;-53
2022/08/03 00:19:13;;;;;;;5.95;5.10;;;;;;;15.93;85.57;94786.72;1665086;85;22025;-54
2022/08/03 00:21:42;;;;;;;7.35;4.78;;;;;;;15.94;85.48;94789.64;1642180;85;20970;-53
2022/08/03 00:24:09;;;;;;;5.15;4.70;;;;;;;15.93;85.28;94788.11;1667698;85;21495;-54
2022/08/03 00:26:37;;;;;;;5.60;4.85;;;;;;;15.94;85.40;94786.12;1662729;85;20979;-54
2022/08/03 00:29:05;;;;;;;6.00;5.10;;;;;;;15.93;85.41;94788.11;1645949;86;21756;-54
2022/08/03 00:31:34;;;;;;;10.40;5.15;;;;;;;15.92;85.26;94789.36;1664204;85;21168;-54
2022/08/03 00:34:03;;;;;;;7.50;5.83;;;;;;;15.87;85.18;94785.88;1659876;85;21516;-54
2022/08/03 00:36:31;;;;;;;7.67;5.50;;;;;;;15.89;85.31;94791.71;1656680;85;21081;-54
2022/08/03 00:38:59;;;;;;;8.38;5.12;;;;;;;15.87;85.23;94785.88;1665151;85;21496;-54
2022/08/03 00:41:27;;;;;;;8.23;5.12;;;;;;;15.87;85.20;94792.81;1660506;84;21522;-54
2022/08/03 00:43:55;;;;;;;5.80;4.92;;;;;;;15.84;85.21;94792.39;1659135;85;21387;-55
2022/08/03 00:46:23;;;;;;;9.15;4.15;;;;;;;15.85;85.17;94797.30;1640297;85;20959;-54
2022/08/03 00:48:51;;;;;;;7.00;4.75;;;;;;;15.83;85.08;94799.80;1640816;86;20987;-54
2022/08/03 00:51:20;;;;;;;5.65;5.12;;;;;;;15.84;85.43;94795.77;1647725;85;21042;-54
2022/08/03 00:53:49;;;;;;;6.00;5.40;;;;;;;15.84;85.37;94796.55;1658428;85;21669;-54
2022/08/03 00:56:18;;;;;;;4.72;4.28;;;;;;;15.82;85.25;94786.56;1655364;85;21582;-54
2022/08/03 00:58:46;;;;;;;5.25;4.78;;;;;;;15.79;85.20;94786.14;1659728;85;20998;-54
2022/08/03 01:01:15;;;;;;;4.92;4.42;;;;;;;15.79;85.19;94789.52;1636020;85;21038;-54
2022/08/03 01:03:42;;;;;;;5.53;5.03;;;;;;;15.75;85.26;94786.93;1647783;85;21026;-55
2022/08/03 01:06:26;;;;;;;5.12;4.62;;;;;;;15.69;85.12;94781.92;1667342;84;21018;-54
2022/08/03 01:09:02;;;;;;;8.73;4.87;;;;;;;15.65;85.43;94789.67;1677262;85;22049;-54
2022/08/03 01:11:56;;;;;;;9.10;5.42;;;;;;;15.63;85.45;94786.63;1670303;84;21023;-54
2022/08/03 01:14:47;;;;;;;7.47;5.60;;;;;;;15.58;85.55;94787.27;1676357;83;21035;-54
2022/08/03 01:17:20;;;;;;;7.28;5.80;;;;;;;15.50;85.83;94793.06;1654590;85;21451;-53
2022/08/03 01:20:09;;;;;;;;;;;;;;;15.41;85.95;94794.55;1670476;84;21026;-54
2022/08/03 01:23:12;;;;;;;5.37;4.87;;;;;;;15.36;86.22;94802.77;1653286;85;21892;-53
2022/08/03 01:26:08;;;;;;;13.43;5.33;;;;;;;15.31;86.48;94806.95;1625607;88;21467;-54
2022/08/03 01:29:16;;;;;;;5.58;4.90;;;;;;;15.33;86.63;94800.31;1666554;84;21022;-54
2022/08/03 01:32:03;;;;;;;7.75;5.28;;;;;;;15.32;86.65;94807.09;1665737;85;21014;-54
2022/08/03 01:34:33;;;;;;;5.62;5.10;;;;;;;15.32;86.80;94807.73;1649144;86;20966;-54
2022/08/03 01:37:03;;;;;;;7.60;5.50;;;;;;;15.31;87.23;94806.95;1669790;84;21178;-54
2022/08/03 01:39:30;;;;;;;6.15;4.70;;;;;;;15.34;87.40;94812.93;1663126;85;21055;-55
2022/08/03 01:42:01;;;;;;;6.20;4.75;;;;;;;15.33;87.41;94810.02;1663930;85;21066;-54
2022/08/03 01:44:30;;;;;;;7.53;5.17;;;;;;;15.33;88.04;94807.24;1665195;84;20962;-53
2022/08/03 01:47:03;;;;;;;6.22;5.15;;;;;;;15.37;88.24;94807.06;1662269;84;21023;-54
2022/08/03 01:49:32;;;;;;;5.60;5.10;;;;;;;15.41;88.23;94797.94;1656010;85;21156;-53
2022/08/03 01:52:00;;;;;;;5.65;5.00;;;;;;;15.42;87.91;94801.63;1686621;84;21010;-53
2022/08/03 01:54:28;;;;;;;7.37;5.00;;;;;;;15.42;87.82;94806.39;1654837;84;21066;-54
2022/08/03 01:56:57;;;;;;;5.40;4.90;;;;;;;15.42;87.74;94800.84;1656077;85;21015;-54
2022/08/03 01:59:25;;;;;;;9.28;5.20;;;;;;;15.42;87.77;94797.47;1670553;85;21549;-54
2022/08/03 02:01:53;;;;;;;7.60;4.95;;;;;;;15.38;87.71;94796.87;1645569;85;21100;-53
2022/08/03 02:04:21;;;;;;;8.63;7.85;;;;;;;15.36;88.06;94795.20;1670234;84;20959;-53
2022/08/03 02:06:49;;;;;;;5.50;5.00;;;;;;;15.40;88.09;94797.79;1640275;86;20976;-54
2022/08/03 02:09:19;;;;;;;5.40;4.90;;;;;;;15.45;87.66;94799.89;1660313;85;21030;-55
2022/08/03 02:11:47;;;;;;;10.18;5.30;;;;;;;15.45;87.57;94795.73;1676790;84;21558;-53
2022/08/03 02:14:16;;;;;;;5.95;5.42;;;;;;;15.44;87.46;94796.37;1662493;84;21245;-54
2022/08/03 02:16:44;;;;;;;6.00;5.50;;;;;;;15.44;87.23;94799.14;1661175;85;21216;-53
2022/08/03 02:19:12;;;;;;;5.65;4.97;;;;;;;15.38;87.08;94792.70;1673185;84;21006;-54
2022/08/03 02:21:40;;;;;;;6.87;5.25;;;;;;;15.32;87.17;94797.39;1669548;85;21483;-55
2022/08/03 02:24:10;;;;;;;5.15;4.70;;;;;;;15.27;87.18;94789.72;1667207;84;21078;-54
2022/08/03 02:26:38;;;;;;;5.45;4.92;;;;;;;15.23;87.46;94779.45;1653858;86;21239;-54
2022/08/03 02:29:11;;;;;;;10.03;5.62;;;;;;;15.21;87.48;94788.08;1651102;86;21493;-54
2022/08/03 02:31:39;;;;;;;7.25;5.45;;;;;;;15.19;87.58;94776.08;1656944;85;21045;-54
2022/08/03 02:34:11;;;;;;;9.05;5.83;;;;;;;15.17;87.63;94778.55;1659560;84;21573;-54
2022/08/03 02:36:39;;;;;;;5.50;4.95;;;;;;;15.12;87.53;94773.69;1669785;85;21189;-54
2022/08/03 02:39:13;;;;;;;5.40;4.90;;;;;;;15.09;87.58;94773.25;1659179;85;21132;-54
2022/08/03 02:41:45;;;;;;;11.20;5.40;;;;;;;15.05;87.64;94772.68;1659043;84;20955;-53
2022/08/03 02:44:13;;;;;;;6.95;5.78;;;;;;;14.95;87.91;94771.21;1680261;84;20982;-54
2022/08/03 02:46:45;;;;;;;5.35;4.83;;;;;;;14.88;88.23;94768.82;1670374;85;21518;-55
2022/08/03 02:49:13;;;;;;;7.00;5.25;;;;;;;14.84;88.44;94768.21;1680083;84;20966;-54
2022/08/03 02:51:41;;;;;;;5.50;5.00;;;;;;;14.86;88.67;94774.07;1649568;85;21257;-53
2022/08/03 02:54:09;;;;;;;6.00;4.85;;;;;;;14.88;88.53;94768.82;1671779;84;20975;-54
2022/08/03 02:56:38;;;;;;;5.85;5.22;;;;;;;14.87;88.45;94775.59;1668249;85;21023;-53
2022/08/03 02:59:07;;;;;;;6.08;5.03;;;;;;;14.85;88.51;94772.51;1646707;86;21121;-54
2022/08/03 03:01:35;;;;;;;6.85;5.60;;;;;;;14.85;88.47;94774.53;1606722;87;21566;-54
2022/08/03 03:04:03;;;;;;;6.00;5.40;;;;;;;14.84;88.54;94773.75;1606490;88;21348;-54
2022/08/03 03:06:31;;;;;;;6.08;5.47;;;;;;;14.81;88.68;94769.80;1636464;86;20971;-54
2022/08/03 03:09:00;;;;;;;7.15;4.97;;;;;;;14.80;88.91;94770.41;1591306;89;21045;-53
2022/08/03 03:11:27;;;;;;;7.97;4.70;;;;;;;14.80;89.01;94775.95;1644008;85;21512;-54
2022/08/03 03:13:56;;;;;;;5.25;4.83;;;;;;;14.79;88.69;94775.80;1662679;85;21101;-54
2022/08/03 03:16:24;;;;;;;6.45;4.70;;;;;;;14.77;88.23;94776.89;1658172;85;21161;-54
2022/08/03 03:18:52;;;;;;;5.60;5.10;;;;;;;14.74;88.39;94782.61;1653286;85;21109;-53
2022/08/03 03:21:21;;;;;;;12.85;5.83;;;;;;;14.74;88.46;94783.98;1652637;85;21109;-54
2022/08/03 03:23:49;;;;;;;8.30;5.83;;;;;;;14.68;88.34;94787.27;1657309;85;20999;-55
2022/08/03 03:26:18;;;;;;;9.53;5.72;;;;;;;14.61;88.82;94789.02;1607402;87;21568;-53
2022/08/03 03:28:45;;;;;;;6.62;5.67;;;;;;;14.60;89.16;94793.03;1619069;87;21906;-53
2022/08/03 03:31:13;;;;;;;7.22;5.47;;;;;;;14.61;89.34;94792.55;1617263;88;20944;-53
2022/08/03 03:33:41;;;;;;;9.88;5.95;;;;;;;14.63;89.66;94799.00;1609358;88;21552;-54
2022/08/03 03:36:09;;;;;;;10.58;6.70;;;;;;;14.59;90.15;94792.25;1614962;87;21056;-54
2022/08/03 03:38:37;;;;;;;9.60;6.00;;;;;;;14.55;90.51;94798.59;1629902;84;21090;-54
2022/08/03 03:41:05;;;;;;;8.18;6.72;;;;;;;14.53;91.09;94803.05;1655925;85;21858;-53
2022/08/03 03:43:33;;;;;;;10.82;7.37;;;;;;;14.57;90.97;94800.88;1668566;85;20971;-53
2022/08/03 03:46:01;;;;;;;13.45;6.65;;;;;;;14.65;91.03;94799.30;1662225;85;21597;-53
2022/08/03 03:48:29;;;;;;;9.78;6.55;;;;;;;14.73;90.90;94801.23;1661995;85;21451;-54
2022/08/03 03:50:58;;;;;;;7.17;6.28;;;;;;;14.79;90.75;94804.88;1647133;85;21038;-54
2022/08/03 03:53:26;;;;;;;6.30;5.60;;;;;;;14.85;90.32;94798.83;1673864;83;21255;-53
2022/08/03 03:55:54;;;;;;;8.88;6.37;;;;;;;14.87;89.86;94804.69;1667634;85;21138;-53
2022/08/03 03:58:22;;;;;;;7.35;6.55;;;;;;;14.95;89.58;94801.69;1635644;86;21024;-54
2022/08/03 04:00:52;;;;;;;9.65;6.10;;;;;;;15.01;89.29;94812.89;1640780;86;20976;-53
2022/08/03 04:03:20;;;;;;;14.33;7.40;;;;;;;15.04;89.00;94800.22;1642751;86;20983;-54
2022/08/03 04:11:50;;;;;;;6.42;5.37;;;;;;;15.15;88.56;94810.14;1646338;85;20971;-55
2022/08/03 04:14:27;;;;;;;9.98;6.53;;;;;;;15.14;88.27;94807.23;1629002;85;21022;-53
2022/08/03 04:16:58;;;;;;;10.25;6.90;;;;;;;15.13;88.37;94806.30;1623558;87;20951;-53
2022/08/03 04:19:42;;;;;;;7.00;6.17;;;;;;;15.17;88.86;94809.05;1650025;86;21318;-54
2022/08/03 04:22:11;;;;;;;9.35;5.92;;;;;;;15.24;88.40;94810.08;1652480;85;20977;-54
2022/08/03 04:24:49;;;;;;;6.67;5.97;;;;;;;15.32;88.31;94811.26;1676045;85;21007;-54
2022/08/03 04:27:20;;;;;;;9.98;6.55;;;;;;;15.39;88.13;94813.64;1678346;84;21105;-54
2022/08/03 04:29:50;;;;;;;9.30;6.62;;;;;;;15.48;87.92;94821.11;1676520;84;21010;-53
2022/08/03 04:32:19;;;;;;;8.43;5.90;;;;;;;15.53;87.87;94807.36;1654032;84;21229;-53
2022/08/03 04:34:46;;;;;;;8.33;5.65;;;;;;;15.61;87.70;94814.07;1666725;84;21051;-53
2022/08/03 04:37:48;;;;;;;6.53;5.92;;;;;;;15.69;87.31;94814.45;1681014;85;20999;-50
2022/08/03 04:40:17;;;;;;;10.20;6.20;;;;;;;15.74;86.99;94813.78;1669631;85;20982;-54
2022/08/03 04:42:45;;;;;;;13.68;6.53;;;;;;;15.82;86.65;94810.75;1651876;86;21034;-56
2022/08/03 04:45:14;;;;;;;14.25;6.28;;;;;;;15.84;86.19;94811.81;1643675;85;21202;-53
2022/08/03 04:47:41;;;;;;;13.43;5.62;;;;;;;15.85;85.90;94818.89;1644683;85;20975;-54
2022/08/03 04:50:10;;;;;;;7.62;6.12;;;;;;;15.89;85.69;94818.07;1610659;88;21044;-54
2022/08/03 04:52:39;;;;;;;9.48;6.58;;;;;;;15.96;85.43;94817.70;1600859;87;21264;-54
2022/08/03 04:55:08;;;;;;;7.00;6.30;;;;;;;16.02;85.20;94814.39;1636985;85;21010;-53
2022/08/03 04:57:36;;;;;;;6.87;6.17;;;;;;;16.12;85.10;94812.27;1654152;86;21760;-54
2022/08/03 05:00:06;;;;;;;6.22;5.72;;;;;;;16.25;84.75;94819.03;1644478;85;21175;-55
2022/08/03 05:02:33;;;;;;;7.70;6.87;;;;;;;16.38;84.17;94824.44;1610746;88;21044;-55
2022/08/03 05:05:01;;;;;;;10.08;6.78;;;;;;;16.49;83.59;94825.22;1657907;85;20967;-57
2022/08/03 05:07:29;;;;;;;15.98;7.10;;;;;;;16.58;83.34;94826.50;1673450;84;21089;-54
2022/08/03 05:09:57;;;;;;;23.00;7.28;;;;;;;16.67;82.81;94815.25;1657539;85;21810;-56
2022/08/03 05:12:25;;;;;;;13.55;6.33;;;;;;;16.76;82.37;94822.08;1675625;84;21082;-56
2022/08/03 05:14:53;;;;;;;7.25;6.15;;;;;;;16.82;81.85;94827.86;1649073;86;20987;-56
2022/08/03 05:17:20;;;;;;;7.40;6.65;;;;;;;16.84;81.52;94822.58;1637968;86;20987;-55
2022/08/03 05:19:48;;;;;;;10.60;6.42;;;;;;;16.87;81.49;94829.94;1664538;85;21018;-55
2022/08/03 05:22:16;;;;;;;9.80;6.67;;;;;;;16.87;81.24;94829.94;1665364;84;21246;-56
2022/08/03 05:24:44;;;;;;;17.85;6.97;;;;;;;16.86;81.23;94829.02;1664878;85;21601;-56
2022/08/03 05:27:18;;;;;;;9.00;6.37;;;;;;;16.88;81.28;94827.30;1630591;86;21013;-55
2022/08/03 05:29:43;;;;;;;8.48;6.40;;;;;;;16.93;81.25;94832.80;1672368;84;20958;-55
2022/08/03 05:32:11;;;;;;;9.45;6.90;;;;;;;16.99;81.21;94828.06;1669360;84;21061;-55
2022/08/03 05:34:39;;;;;;;8.28;7.30;;;;;;;17.06;81.14;94833.23;1679231;85;21456;-55
2022/08/03 05:37:08;;;;;;;10.75;7.65;;;;;;;17.17;81.37;94831.95;1669690;85;21486;-55
2022/08/03 05:39:37;;;;;;;14.63;7.40;;;;;;;17.32;81.20;94829.86;1665121;85;21518;-55
2022/08/03 05:42:05;;;;;;;7.33;5.87;;;;;;;17.47;80.54;94827.80;1660262;84;21712;-55
2022/08/03 05:44:37;;;;;;;21.45;6.47;;;;;;;17.55;79.70;94824.70;1661236;85;20988;-55
2022/08/03 05:47:03;;;;;;;9.78;6.90;;;;;;;17.56;79.27;94831.80;1660130;85;21250;-55
2022/08/03 05:49:32;;;;;;;11.53;6.83;;;;;;;17.59;79.42;94836.38;1656016;85;21035;-56
2022/08/03 05:52:03;;;;;;;12.88;7.55;;;;;;;17.64;79.29;94834.30;1652443;85;21182;-57
2022/08/03 05:54:32;;;;;;;13.30;7.20;;;;;;;17.71;79.32;94835.25;1661048;84;21061;-56
2022/08/03 05:56:59;;;;;;;26.00;8.45;;;;;;;17.81;79.13;94833.84;1653948;84;21077;-62
2022/08/03 05:59:26;;;;;;;12.75;7.85;;;;;;;17.96;79.06;94841.42;1668011;85;21148;-60
2022/08/03 06:01:53;;;;;;;12.73;6.67;;;;;;;18.11;78.36;94837.28;1661275;84;21062;-58
2022/08/03 06:04:21;;;;;;;13.60;8.35;;;;;;;18.18;77.75;94834.81;1641270;85;21122;-57
2022/08/03 06:06:49;;;;;;;19.10;13.38;;;;;;;18.29;77.02;94837.70;1657656;83;21070;-59
2022/08/03 06:09:17;;;;;;;16.95;8.08;;;;;;;18.42;76.55;94835.92;1642244;85;21254;-55
2022/08/03 06:11:45;;;;;;;12.68;7.17;;;;;;;18.55;75.87;94834.25;1658003;84;21223;-56
2022/08/03 06:14:13;;;;;;;7.85;6.75;;;;;;;18.70;75.14;94831.29;1640818;85;21106;-55
2022/08/03 06:16:40;;;;;;;10.25;6.75;;;;;;;18.81;74.89;94839.09;1652532;84;21034;-62
2022/08/03 06:19:09;;;;;;;13.32;6.87;;;;;;;18.94;74.71;94829.66;1649127;85;21053;-56
2022/08/03 06:21:37;;;;;;;12.30;6.90;;;;;;;19.08;74.25;94830.12;1665974;84;21090;-60
2022/08/03 06:24:07;;;;;;;10.43;6.87;;;;;;;19.24;73.63;94825.28;1648972;85;21103;-58
2022/08/03 06:26:35;;;;;;;13.08;7.12;;;;;;;19.40;72.55;94832.19;1651214;85;21147;-59
2022/08/03 06:29:03;;;;;;;10.90;6.17;;;;;;;19.54;71.78;94831.23;1669065;83;21522;-59
2022/08/03 06:31:33;;;;;;;14.07;6.30;;;;;;;19.71;70.50;94836.97;1659526;84;21113;-55
2022/08/03 06:34:04;;;;;;;17.45;7.17;;;;;;;19.90;69.95;94830.30;1660433;85;21085;-60
2022/08/03 06:36:34;;;;;;;24.18;5.58;;;;;;;20.08;69.21;94833.38;1665159;84;21824;-55
2022/08/03 06:39:02;;;;;;;9.88;4.33;;;;;;;20.24;66.66;94827.05;1648465;86;21046;-59
2022/08/03 06:41:32;;;;;;;19.73;5.92;;;;;;;20.38;65.32;94830.98;1645336;85;21272;-55
2022/08/03 06:44:02;;;;;;;7.37;4.35;;;;;;;20.50;64.17;94827.54;1634073;85;20978;-55
2022/08/03 06:46:30;;;;;;;8.08;3.83;;;;;;;20.63;63.70;94825.00;1647979;85;21116;-56
2022/08/03 06:48:58;;;;;;;7.72;4.10;;;;;;;20.70;61.56;94825.24;1652274;84;21327;-55
2022/08/03 06:51:28;;;;;;;7.75;4.22;;;;;;;20.81;61.21;94827.26;1635524;84;21129;-56
2022/08/03 06:53:56;;;;;;;13.00;4.78;;;;;;;20.91;60.72;94824.36;1650806;85;21079;-58
2022/08/03 06:56:23;;;;;;;10.72;3.87;;;;;;;21.00;60.18;94826.86;1659265;84;21070;-57
2022/08/03 06:58:52;;;;;;;9.25;4.17;;;;;;;21.13;58.46;94833.43;1632338;85;21597;-54
2022/08/03 07:01:21;;;;;;;15.53;4.22;;;;;;;21.25;57.53;94828.59;1634424;86;21163;-56
2022/08/03 07:03:48;;;;;;;7.42;3.92;;;;;;;21.32;56.54;94826.64;1634146;84;21064;-56
2022/08/03 07:06:16;;;;;;;4.15;3.00;;;;;;;21.40;55.91;94827.61;1605351;86;21162;-60
2022/08/03 07:08:46;;;;;;;6.12;3.10;;;;;;;21.48;55.81;94827.96;1614197;86;21400;-57
2022/08/03 07:11:14;;;;;;;5.75;2.60;;;;;;;21.60;55.66;94824.47;1640905;85;21159;-57
2022/08/03 07:13:41;;;;;;;4.12;2.40;;;;;;;21.77;55.23;94830.77;1656389;84;21942;-60
2022/08/03 07:16:09;;;;;;;3.02;1.98;;;;;;;21.93;54.24;94827.13;1642244;85;21113;-57
2022/08/03 07:18:38;;;;;;;7.62;2.33;;;;;;;22.08;52.65;94827.66;1633341;85;21046;-58
2022/08/03 07:21:07;;;;;;;3.05;2.22;;;;;;;22.23;52.64;94826.66;1664837;84;21961;-58
2022/08/03 07:23:35;;;;;;;3.02;1.90;;;;;;;22.38;52.48;94832.70;1646125;85;21019;-57
2022/08/03 07:26:03;;;;;;;5.72;1.92;;;;;;;22.52;52.43;94835.01;1640452;85;21088;-58
2022/08/03 07:28:31;;;;;;;8.88;2.92;;;;;;;22.64;52.69;94830.84;1651716;85;21019;-64
2022/08/03 07:30:59;;;;;;;4.08;2.00;;;;;;;22.77;52.08;94832.36;1651618;85;21035;-58
2022/08/03 07:33:28;;;;;;;3.37;2.10;;;;;;;22.91;52.50;94826.37;1645842;85;21127;-58
2022/08/03 07:35:56;;;;;;;4.92;1.92;;;;;;;23.02;51.26;94831.85;1653486;84;21541;-59
2022/08/03 07:38:24;;;;;;;2.65;1.95;;;;;;;23.09;50.77;94831.91;1632983;85;21244;-58
2022/08/03 07:40:54;;;;;;;6.83;3.27;;;;;;;23.13;50.91;94828.97;1656562;84;21104;-57
2022/08/03 07:43:23;;;;;;;2.17;1.57;;;;;;;23.20;50.69;94835.39;1675088;84;21007;-55
2022/08/03 07:45:50;;;;;;;3.10;1.95;;;;;;;23.25;49.86;94835.22;1651511;84;20990;-58
2022/08/03 07:48:18;;;;;;;2.33;1.67;;;;;;;23.30;50.05;94841.41;1645412;85;21804;-55
2022/08/03 07:50:46;;;;;;;5.12;1.77;;;;;;;23.34;49.74;94837.03;1659659;84;21135;-59
2022/08/03 07:53:13;;;;;;;3.10;1.72;;;;;;;23.37;48.59;94828.95;1644004;84;21657;-55
2022/08/03 07:55:41;;;;;;;2.05;1.57;;;;;;;23.38;49.72;94836.73;1652551;84;21164;-60
2022/08/03 07:58:17;;;;;;;6.75;1.80;;;;;;;23.41;50.03;94837.08;1657621;85;20995;-59
2022/08/03 08:00:43;;;;;;;4.55;1.92;;;;;;;23.48;50.25;94846.31;1648908;84;21066;-60
2022/08/03 08:03:12;;;;;;;3.55;1.72;;;;;;;23.57;49.81;94840.34;1669291;84;21216;-59
2022/08/03 08:05:39;;;;;;;5.50;2.08;;;;;;;23.70;49.59;94841.81;1646232;84;21023;-62
2022/08/03 08:08:07;;;;;;;2.37;2.17;;;;;;;23.80;49.08;94840.17;1649237;83;21025;-60
2022/08/03 08:10:36;;;;;;;5.20;2.10;;;;;;;23.90;48.83;94844.16;1645514;84;21593;-59
2022/08/03 08:13:03;;;;;;;6.70;2.05;;;;;;;23.96;47.62;94846.98;1658701;84;21222;-59
2022/08/03 08:15:31;;;;;;;4.10;1.85;;;;;;;24.04;47.88;94848.66;1659667;85;21239;-63
2022/08/03 08:17:59;;;;;;;3.40;3.05;;;;;;;24.11;47.90;94836.05;1662088;84;21082;-59
2022/08/03 08:20:30;;;;;;;2.95;2.62;;;;;;;24.13;48.47;94839.86;1661519;84;21115;-59
2022/08/03 08:23:03;;;;;;;3.98;1.85;;;;;;;24.23;48.03;94841.63;1652821;84;21023;-58
2022/08/03 08:25:31;;;;;;;2.65;1.90;;;;;;;24.30;47.19;94833.34;1622187;86;21116;-64
2022/08/03 08:28:01;;;;;;;5.45;2.00;;;;;;;24.36;46.21;94842.44;1652350;85;21522;-55
2022/08/03 08:30:28;;;;;;;3.95;1.98;;;;;;;24.36;45.77;94834.67;1634697;85;21050;-56
2022/08/03 08:32:56;;;;;;;2.85;1.82;;;;;;;24.35;46.98;94839.52;1654009;85;21007;-62
2022/08/03 08:35:27;;;;;;;5.35;2.00;;;;;;;24.38;46.48;94844.07;1649350;83;21042;-62
2022/08/03 08:37:55;;;;;;;3.83;1.72;;;;;;;24.41;45.43;94840.84;1643934;85;21069;-61
2022/08/03 08:40:22;;;;;;;2.90;2.20;;;;;;;24.37;45.02;94843.22;1651358;85;21864;-66
2022/08/03 08:42:51;;;;;;;2.40;1.90;;;;;;;24.31;45.21;94836.90;1667194;84;21046;-56
2022/08/03 08:45:18;;;;;;;1.85;1.47;;;;;;;24.34;45.39;94841.45;1659325;84;21069;-58
2022/08/03 08:47:47;;;;;;;5.25;1.82;;;;;;;24.38;44.22;94844.73;1661227;84;20998;-59
2022/08/03 08:50:20;;;;;;;2.47;1.80;;;;;;;24.40;43.46;94845.70;1676033;84;21639;-57
2022/08/03 08:52:49;;;;;;;2.50;1.90;;;;;;;24.43;43.37;94834.78;1650407;85;21138;-56
2022/08/03 08:55:22;;;;;;;1.90;1.67;;;;;;;24.50;44.27;94832.77;1654582;84;20968;-58
2022/08/03 08:57:52;;;;;;;2.75;1.82;;;;;;;24.57;44.26;94830.02;1658186;84;21475;-57
2022/08/03 09:00:20;;;;;;;4.47;2.20;;;;;;;24.66;44.12;94827.55;1660770;84;21124;-60
2022/08/03 09:02:48;;;;;;;5.72;1.95;;;;;;;24.70;44.43;94831.44;1652027;85;21101;-62
2022/08/03 09:05:17;;;;;;;2.85;1.62;;;;;;;24.78;45.06;94835.90;1648614;85;21133;-58
2022/08/03 09:07:46;;;;;;;2.83;1.70;;;;;;;24.88;44.60;94834.20;1669707;85;21140;-61
2022/08/03 09:10:18;;;;;;;3.27;1.85;;;;;;;24.99;45.04;94829.80;1651056;85;21057;-61
2022/08/03 09:12:47;;;;;;;5.03;2.10;;;;;;;25.14;44.72;94822.22;1664926;83;21517;-63
2022/08/03 09:15:27;;;;;;;4.85;2.00;;;;;;;25.23;42.89;94821.81;1657942;84;22205;-60
2022/08/03 09:17:56;;;;;;;1.72;1.35;;;;;;;25.29;42.91;94823.89;1647295;85;21215;-60
2022/08/03 09:20:26;;;;;;;3.22;1.80;;;;;;;25.30;43.26;94824.00;1664386;83;21464;-64
2022/08/03 09:23:03;;;;;;;4.12;2.10;;;;;;;25.34;41.92;94814.56;1646682;84;21031;-63
2022/08/03 09:25:41;;;;;;;2.42;1.42;;;;;;;25.39;42.86;94815.88;1652242;84;21129;-62
2022/08/03 09:28:12;;;;;;;1.70;1.37;;;;;;;25.50;41.00;94812.08;1645415;85;22150;-60
2022/08/03 09:30:43;;;;;;;2.37;1.27;;;;;;;25.52;39.90;94810.87;1654463;85;21921;-60
2022/08/03 09:33:14;;;;;;;6.37;2.37;;;;;;;25.54;40.44;94813.91;1655522;84;21128;-58
2022/08/03 09:35:43;;;;;;;4.85;1.57;;;;;;;25.64;43.59;94815.00;1620870;85;21020;-58
2022/08/03 09:38:18;;;;;;;1.82;1.10;;;;;;;25.83;41.61;94817.03;1666179;84;21026;-61
2022/08/03 09:40:46;;;;;;;2.98;1.32;;;;;;;25.94;42.02;94813.34;1646920;85;21165;-57
2022/08/03 09:43:15;;;;;;;5.08;1.40;;;;;;;26.00;41.20;94813.33;1627251;85;21454;-57
2022/08/03 09:45:43;;;;;;;2.52;1.25;;;;;;;25.99;40.15;94809.00;1651670;85;21552;-59
2022/08/03 09:48:28;;;;;;;1.30;1.20;;;;;;;25.90;40.37;94811.52;1660456;85;21038;-57
2022/08/03 09:50:59;;;;;;;2.40;1.40;;;;;;;25.87;41.02;94816.81;1666709;85;21336;-56
2022/08/03 09:53:26;;;;;;;1.65;1.47;;;;;;;25.89;40.87;94813.45;1663200;83;21070;-59
2022/08/03 09:56:01;;;;;;;2.27;1.17;;;;;;;25.92;39.20;94808.13;1638701;85;21205;-57
2022/08/03 09:58:30;;;;;;;2.40;1.35;;;;;;;26.00;40.93;94799.23;1661698;84;21168;-57
2022/08/03 10:01:03;;;;;;;1.35;1.10;;;;;;;26.19;39.85;94813.92;1684010;84;21556;-58
2022/08/03 10:03:36;;;;;;;1.55;1.07;;;;;;;26.32;39.96;94808.88;1661410;84;21471;-61
2022/08/03 10:06:21;;;;;;;1.30;1.20;;;;;;;26.40;39.27;94802.02;1663784;84;21066;-56
2022/08/03 10:09:07;;;;;;;1.57;1.20;;;;;;;26.48;40.30;94804.94;1662161;84;21238;-60
2022/08/03 10:11:34;;;;;;;3.30;1.35;;;;;;;26.60;40.36;94808.35;1641908;85;21712;-57
2022/08/03 10:14:05;;;;;;;1.87;1.27;;;;;;;26.75;39.11;94811.95;1623250;85;20975;-60
2022/08/03 10:16:36;;;;;;;4.85;1.50;;;;;;;26.79;39.13;94806.72;1662431;85;21066;-58
2022/08/03 10:19:05;;;;;;;1.22;1.12;;;;;;;26.88;38.82;94812.63;1650312;84;21105;-56
2022/08/03 10:21:37;;;;;;;2.50;1.52;;;;;;;27.07;39.17;94806.10;1635593;85;21297;-59
2022/08/03 10:24:07;;;;;;;3.22;1.35;;;;;;;27.30;39.52;94813.37;1647927;85;21772;-56
2022/08/03 10:26:38;;;;;;;3.50;1.10;;;;;;;27.60;38.71;94801.58;1628864;85;21046;-57
2022/08/03 10:29:10;;;;;;;8.70;1.52;;;;;;;27.88;38.03;94807.98;1644200;85;21153;-56
2022/08/03 10:31:44;;;;;;;1.20;1.10;;;;;;;28.02;37.95;94810.78;1635969;85;21513;-56
2022/08/03 10:34:15;;;;;;;3.10;1.20;;;;;;;28.20;37.33;94800.48;1656753;84;21179;-57
2022/08/03 10:36:43;;;;;;;1.57;1.20;;;;;;;28.33;37.16;94808.19;1618131;86;21744;-58
2022/08/03 10:39:11;;;;;;;2.05;1.35;;;;;;;28.51;37.08;94805.67;1656365;85;21050;-57
2022/08/03 10:41:41;;;;;;;2.67;1.02;;;;;;;28.69;36.96;94814.48;1645561;84;21771;-57
2022/08/03 10:44:13;;;;;;;4.65;1.98;;;;;;;28.84;36.59;94804.59;1637440;85;21043;-58
2022/08/03 10:46:41;;;;;;;1.87;1.10;;;;;;;28.85;34.89;94814.61;1651490;85;21586;-62
2022/08/03 10:49:22;;;;;;;2.72;1.62;;;;;;;28.84;34.93;94808.08;1599480;87;21283;-64
2022/08/03 10:51:51;;;;;;;1.25;1.15;;;;;;;29.01;35.13;94814.74;1567111;89;21107;-59
2022/08/03 10:57:52;;;;;;;1.27;1.17;;;;;;;29.24;33.63;94809.05;1611509;87;21116;-62
2022/08/03 11:00:23;;;;;;;1.20;1.02;;;;;;;29.46;34.90;94806.22;1615009;87;21125;-58
2022/08/03 11:03:13;;;;;;;1.62;1.17;;;;;;;29.89;33.64;94804.49;1606911;88;21142;-59
2022/08/03 11:05:48;;;;;;;1.10;0.88;;;;;;;30.23;33.82;94809.80;1640238;85;21065;-58
2022/08/03 11:08:38;;;;;;;2.30;1.07;;;;;;;30.57;33.32;94804.34;1609149;85;21102;-64
2022/08/03 11:11:28;;;;;;;1.72;1.40;;;;;;;30.91;32.46;94809.41;1622006;86;21037;-60
2022/08/03 11:14:19;;;;;;;3.37;1.32;;;;;;;31.30;32.55;94805.06;1655883;84;21305;-67
2022/08/03 11:16:51;;;;;;;2.77;1.00;;;;;;;31.63;32.30;94797.89;1650012;85;21607;-65
2022/08/03 11:19:26;;;;;;;3.30;1.00;;;;;;;32.02;32.12;94792.67;1638034;85;21030;-64
2022/08/03 11:21:53;;;;;;;1.72;1.10;;;;;;;32.37;29.82;94796.98;1646993;85;21030;-65
2022/08/03 11:24:45;;;;;;;1.30;1.07;;;;;;;32.66;29.86;94792.98;1644238;85;21464;-64
2022/08/03 11:27:23;;;;;;;1.67;1.20;;;;;;;32.87;29.65;94794.70;1637805;84;21400;-66
2022/08/03 11:30:03;;;;;;;3.15;1.32;;;;;;;32.78;28.77;94801.09;1664431;83;21029;-58
2022/08/03 11:32:50;;;;;;;2.67;1.22;;;;;;;32.95;29.21;94803.14;1638375;86;21134;-63
2022/08/03 11:35:27;;;;;;;1.77;1.10;;;;;;;32.98;28.79;94796.24;1599859;87;21098;-61
2022/08/03 11:38:06;;;;;;;3.92;1.27;;;;;;;33.09;29.01;94798.52;1635624;85;21158;-64
2022/08/03 11:40:48;;;;;;;1.25;1.00;;;;;;;33.32;27.32;94794.67;1642721;85;21146;-61
2022/08/03 11:43:42;;;;;;;2.65;0.98;;;;;;;33.52;28.06;94791.94;1642026;85;20926;-62
2022/08/03 11:46:16;;;;;;;3.85;1.30;;;;;;;33.87;28.30;94788.95;1643532;85;21062;-65
2022/08/03 11:48:45;;;;;;;2.37;1.00;;;;;;;33.98;27.81;94795.55;1661988;84;21598;-63
2022/08/03 11:51:25;;;;;;;3.27;1.10;;;;;;;34.04;26.72;94790.30;1622933;85;21084;-62
2022/08/03 11:53:59;;;;;;;5.15;1.32;;;;;;;33.88;28.11;94786.16;1620803;86;21196;-68
2022/08/03 11:56:27;;;;;;;3.12;1.32;;;;;;;33.85;27.51;94783.08;1602576;84;21667;-60
2022/08/03 11:58:56;;;;;;;13.65;1.80;;;;;;;33.98;28.98;94788.41;1607524;86;21148;-59